createdAt,value
2018-05-16T00:04:03.601Z,1012.3
2018-05-16T00:09:03.687Z,1012.4
2018-05-16T00:14:15.440Z,1012.4
2018-05-16T00:19:15.228Z,1012.4
2018-05-16T00:24:15.149Z,1012.4
2018-05-16T00:29:15.155Z,1012.4
2018-05-16T00:34:15.283Z,1012.4
2018-05-16T00:39:15.261Z,1012.4
2018-05-16T00:44:15.151Z,1012.4
2018-05-16T00:49:16.198Z,1012.3
2018-05-16T00:54:15.921Z,1012.3
2018-05-16T00:59:28.345Z,1012.3
2018-05-16T01:04:28.185Z,1012.2
2018-05-16T01:09:28.074Z,1012.3
2018-05-16T01:14:28.092Z,1012.2
2018-05-16T01:19:28.079Z,1012.2
2018-05-16T01:24:28.091Z,1012.2
2018-05-16T01:29:28.090Z,1012.2
2018-05-16T01:34:28.110Z,1012.2
2018-05-16T01:39:28.314Z,1012.3
2018-05-16T01:44:40.031Z,1012.2
2018-05-16T01:49:39.726Z,1012.2
2018-05-16T01:54:39.778Z,1012.3
2018-05-16T01:59:39.727Z,1012.3
2018-05-16T02:04:40.150Z,1012.2
2018-05-16T02:09:39.986Z,1012.1
2018-05-16T02:14:39.996Z,1012.1
2018-05-16T02:19:40.094Z,1012.1
2018-05-16T02:24:40.287Z,1012.1
2018-05-16T02:29:51.889Z,1012.2
2018-05-16T02:34:51.612Z,1012.1
2018-05-16T02:39:51.757Z,1012.2
2018-05-16T02:44:51.779Z,1012.1
2018-05-16T02:49:51.837Z,1012.1
2018-05-16T02:54:51.726Z,1012.1
2018-05-16T02:59:51.617Z,1012
2018-05-16T03:04:51.968Z,1012.1
2018-05-16T03:09:51.849Z,1012.1
2018-05-16T03:15:03.935Z,1012.1
2018-05-16T03:20:03.647Z,1012
2018-05-16T03:25:03.662Z,1012
2018-05-16T03:30:03.652Z,1012.1
2018-05-16T03:35:03.718Z,1012
2018-05-16T03:40:03.681Z,1012.1
2018-05-16T03:45:03.658Z,1012.2
2018-05-16T03:50:03.675Z,1012.1
2018-05-16T03:55:03.684Z,1012
2018-05-16T04:00:16.974Z,1012.1
2018-05-16T04:05:16.910Z,1012.1
2018-05-16T04:10:16.664Z,1012.2
2018-05-16T04:15:16.762Z,1012.2
2018-05-16T04:20:16.936Z,1012.1
2018-05-16T04:25:16.940Z,1012.2
2018-05-16T04:30:17.094Z,1012.1
2018-05-16T04:35:16.939Z,1012.1
2018-05-16T04:40:17.065Z,1012.1
2018-05-16T04:45:28.665Z,1012.2
2018-05-16T04:50:28.294Z,1012.2
2018-05-16T04:55:28.281Z,1012.2
2018-05-16T05:00:28.296Z,1012.2
2018-05-16T05:05:28.306Z,1012.2
2018-05-16T05:10:28.429Z,1012.2
2018-05-16T05:15:28.434Z,1012.2
2018-05-16T05:20:28.300Z,1012.2
2018-05-16T05:25:28.305Z,1012.2
2018-05-16T05:30:39.820Z,1012.2
2018-05-16T05:35:39.536Z,1012.2
2018-05-16T05:40:39.661Z,1012.2
2018-05-16T05:45:39.701Z,1012.3
2018-05-16T05:50:39.689Z,1012.3
2018-05-16T05:55:39.803Z,1012.4
2018-05-16T06:00:39.550Z,1012.4
2018-05-16T06:05:39.562Z,1012.4
2018-05-16T06:10:39.565Z,1012.3
2018-05-16T06:15:51.148Z,1012.3
2018-05-16T06:20:50.885Z,1012.3
2018-05-16T06:25:51.017Z,1012.3
2018-05-16T06:30:51.122Z,1012.4
2018-05-16T06:35:51.129Z,1012.4
2018-05-16T06:40:51.156Z,1012.4
2018-05-16T06:45:51.465Z,1012.4
2018-05-16T06:50:51.428Z,1012.4
2018-05-16T06:55:51.125Z,1012.3
2018-05-16T07:00:51.144Z,1012.4
2018-05-16T07:05:51.143Z,1012.4
2018-05-16T07:10:51.117Z,1012.4
2018-05-16T07:15:51.225Z,1012.5
2018-05-16T07:20:51.148Z,1012.5
2018-05-16T07:26:03.068Z,1012.5
2018-05-16T07:31:02.738Z,1012.5
2018-05-16T07:36:02.781Z,1012.5
2018-05-16T07:41:03.158Z,1012.6
2018-05-16T07:46:02.780Z,1012.6
2018-05-16T07:51:03.013Z,1012.7
2018-05-16T07:56:03.315Z,1012.6
2018-05-16T08:01:02.784Z,1012.5
2018-05-16T08:06:02.810Z,1012.5
2018-05-16T08:11:14.749Z,1012.6
2018-05-16T08:16:14.470Z,1012.6
2018-05-16T08:21:14.489Z,1012.5
2018-05-16T08:26:14.470Z,1012.5
2018-05-16T08:31:14.836Z,1012.5
2018-05-16T08:36:14.506Z,1012.5
2018-05-16T08:41:14.488Z,1012.6
2018-05-16T08:46:15.068Z,1012.6
2018-05-16T08:51:14.783Z,1012.6
2018-05-16T08:56:27.245Z,1012.6
2018-05-16T09:01:26.983Z,1012.7
2018-05-16T09:06:27.139Z,1012.7
2018-05-16T09:11:27.141Z,1012.7
2018-05-16T09:16:26.879Z,1012.8
2018-05-16T09:21:26.914Z,1012.7
2018-05-16T09:26:27.077Z,1012.8
2018-05-16T09:31:27.348Z,1012.7
2018-05-16T09:36:27.083Z,1012.7
2018-05-16T09:41:39.296Z,1012.7
2018-05-16T09:46:39.022Z,1012.5
2018-05-16T09:51:39.034Z,1012.5
2018-05-16T09:56:39.030Z,1012.4
2018-05-16T10:01:39.017Z,1012.2
2018-05-16T10:06:39.034Z,1012.4
2018-05-16T10:11:38.984Z,1012.2
2018-05-16T10:16:39.042Z,1012.1
2018-05-16T10:21:39.119Z,1012.3
2018-05-16T10:26:50.765Z,1012.4
2018-05-16T10:31:50.578Z,1012.3
2018-05-16T10:36:50.563Z,1012.3
2018-05-16T10:41:50.375Z,1012.2
2018-05-16T10:46:50.574Z,1012.3
2018-05-16T10:51:50.401Z,1012.4
2018-05-16T10:56:50.522Z,1012.4
2018-05-16T11:01:50.783Z,1012.4
2018-05-16T11:06:50.530Z,1012.6
2018-05-16T11:12:02.641Z,1012.4
2018-05-16T11:17:02.397Z,1012.4
2018-05-16T11:22:02.448Z,1012.4
2018-05-16T11:27:02.466Z,1012.4
2018-05-16T11:32:02.413Z,1012.6
2018-05-16T11:37:02.393Z,1012.5
2018-05-16T11:42:02.394Z,1012.6
2018-05-16T11:47:02.526Z,1012.6
2018-05-16T11:52:02.536Z,1012.6
2018-05-16T11:57:14.931Z,1012.8
2018-05-16T12:02:14.623Z,1012.8
2018-05-16T12:07:14.621Z,1012.8
2018-05-16T12:12:14.791Z,1012.8
2018-05-16T12:17:14.626Z,1012.8
2018-05-16T12:22:14.645Z,1012.8
2018-05-16T12:27:14.650Z,1012.8
2018-05-16T12:32:14.758Z,1012.8
2018-05-16T12:37:14.870Z,1012.8
2018-05-16T12:42:26.174Z,1012.8
2018-05-16T12:47:25.818Z,1012.8
2018-05-16T12:52:25.875Z,1013.1
2018-05-16T12:57:26.070Z,1013.2
2018-05-16T13:02:26.107Z,1013.2
2018-05-16T13:07:25.894Z,1013.1
2018-05-16T13:12:26.005Z,1013.1
2018-05-16T13:17:26.195Z,1013
2018-05-16T13:22:26.114Z,1013
2018-05-16T13:27:39.448Z,1013
2018-05-16T13:32:39.194Z,1012.8
2018-05-16T13:37:39.328Z,1012.7
2018-05-16T13:42:39.233Z,1012.6
2018-05-16T13:47:39.341Z,1012.5
2018-05-16T13:52:39.211Z,1012.6
2018-05-16T13:57:39.366Z,1012.7
2018-05-16T14:02:42.183Z,1012.6
2018-05-16T14:07:41.894Z,1012.5
2018-05-16T14:12:54.187Z,1012.6
2018-05-16T14:17:54.041Z,1012.5
2018-05-16T14:22:53.905Z,1012.5
2018-05-16T14:27:53.965Z,1012.5
2018-05-16T14:32:53.993Z,1012.4
2018-05-16T14:37:53.926Z,1012.4
2018-05-16T14:42:58.261Z,1012.4
2018-05-16T14:47:53.896Z,1012.4
2018-05-16T14:52:53.935Z,1012.7
2018-05-16T14:58:05.226Z,1012.8
2018-05-16T15:03:04.902Z,1012.9
2018-05-16T15:08:04.866Z,1012.8
2018-05-16T15:13:08.565Z,1012.9
2018-05-16T15:18:04.895Z,1012.8
2018-05-16T15:23:05.043Z,1012.7
2018-05-16T15:28:04.924Z,1012.7
2018-05-16T15:33:05.123Z,1012.7
2018-05-16T15:38:04.954Z,1012.6
2018-05-16T15:43:16.433Z,1012.6
2018-05-16T15:48:16.120Z,1012.6
2018-05-16T15:53:17.317Z,1012.6
2018-05-16T15:58:16.086Z,1012.6
2018-05-16T16:03:16.276Z,1012.6
2018-05-16T16:08:16.667Z,1012.6
2018-05-16T16:13:16.273Z,1012.7
2018-05-16T16:18:16.269Z,1012.7
2018-05-16T16:23:16.273Z,1012.7
2018-05-16T16:28:28.293Z,1012.7
2018-05-16T16:33:28.147Z,1012.7
2018-05-16T16:38:28.018Z,1012.6
2018-05-16T16:43:28.077Z,1012.6
2018-05-16T16:48:28.061Z,1012.6
2018-05-16T16:53:28.048Z,1012.5
2018-05-16T16:58:28.098Z,1012.5
2018-05-16T17:03:28.050Z,1012.6
2018-05-16T17:08:28.047Z,1012.7
2018-05-16T17:13:39.620Z,1012.7
2018-05-16T17:18:39.094Z,1012.7
2018-05-16T17:23:39.072Z,1012.7
2018-05-16T17:28:39.203Z,1012.8
2018-05-16T17:33:39.292Z,1012.9
2018-05-16T17:38:39.299Z,1013.1
2018-05-16T17:43:39.341Z,1013.1
2018-05-16T17:48:39.314Z,1013.1
2018-05-16T17:53:39.563Z,1013.1
2018-05-16T17:58:52.308Z,1013.2
2018-05-16T18:03:50.885Z,1013.3
2018-05-16T18:08:50.803Z,1013.4
2018-05-16T18:13:50.820Z,1013.4
2018-05-16T18:18:50.771Z,1013.4
2018-05-16T18:23:51.008Z,1013.6
2018-05-16T18:28:50.818Z,1013.6
2018-05-16T18:33:50.815Z,1013.7
2018-05-16T18:38:50.859Z,1013.8
2018-05-16T18:44:03.652Z,1013.9
2018-05-16T18:49:03.443Z,1013.9
2018-05-16T18:54:03.374Z,1014
2018-05-16T18:59:03.446Z,1014
2018-05-16T19:04:03.653Z,1014
2018-05-16T19:09:03.517Z,1014
2018-05-16T19:14:03.398Z,1014.1
2018-05-16T19:19:05.631Z,1014
2018-05-16T19:24:05.161Z,1014.1
2018-05-16T19:29:17.727Z,1014
2018-05-16T19:34:17.398Z,1014.1
2018-05-16T19:39:17.421Z,1014
2018-05-16T19:44:17.561Z,1014
2018-05-16T19:49:17.438Z,1014.2
2018-05-16T19:54:17.433Z,1014.3
2018-05-16T19:59:17.466Z,1014.3
2018-05-16T20:04:17.505Z,1014.2
2018-05-16T20:09:17.446Z,1014.2
2018-05-16T20:14:29.676Z,1014.3
2018-05-16T20:19:29.071Z,1014.3
2018-05-16T20:24:29.082Z,1014.4
2018-05-16T20:29:29.448Z,1014.4
2018-05-16T20:34:29.018Z,1014.4
2018-05-16T20:39:29.036Z,1014.4
2018-05-16T20:44:31.663Z,1014.4
2018-05-16T20:49:30.243Z,1014.4
2018-05-16T20:54:29.974Z,1014.4
2018-05-16T20:59:42.268Z,1014.4
2018-05-16T21:04:42.096Z,1014.4
2018-05-16T21:09:41.996Z,1014.5
2018-05-16T21:14:41.964Z,1014.4
2018-05-16T21:19:41.974Z,1014.5
2018-05-16T21:24:41.975Z,1014.6
2018-05-16T21:29:42.134Z,1014.7
2018-05-16T21:34:43.540Z,1014.6
2018-05-16T21:39:42.284Z,1014.7
2018-05-16T21:44:54.499Z,1014.7
2018-05-16T21:49:54.208Z,1014.7
2018-05-16T21:54:54.228Z,1014.8
2018-05-16T21:59:54.189Z,1014.7
2018-05-16T22:04:54.229Z,1014.8
2018-05-16T22:09:54.275Z,1014.8
2018-05-16T22:14:54.225Z,1014.8
2018-05-16T22:19:54.229Z,1014.8
2018-05-16T22:24:54.224Z,1015
2018-05-16T22:30:05.293Z,1015
2018-05-16T22:35:05.211Z,1015
2018-05-16T22:40:05.010Z,1014.9
2018-05-16T22:45:05.009Z,1014.9
2018-05-16T22:50:15.056Z,1014.8
2018-05-16T22:55:14.786Z,1014.9
2018-05-16T23:00:14.791Z,1015
2018-05-16T23:05:14.957Z,1014.9
2018-05-16T23:10:14.980Z,1014.9
2018-05-16T23:15:15.182Z,1014.8
2018-05-16T23:20:15.154Z,1014.8
2018-05-16T23:25:16.650Z,1014.8
2018-05-16T23:30:16.672Z,1014.8
2018-05-16T23:35:26.444Z,1014.8
2018-05-16T23:40:26.191Z,1014.8
2018-05-16T23:45:26.194Z,1014.8
2018-05-16T23:50:26.182Z,1014.7
2018-05-16T23:55:26.231Z,1014.7
